Terminal Aerodrome Forecast
Issued by NWS Sioux Falls, SD

Home | Current Version | Previous Version | Text Only | Print | Product List | Glossary On
Versions: 1 2 3 4 5 6 7 8 9 10 11 12 13 14 15 16 17 18 19 20 21 22 23 24 25 26
838
FTUS43 KFSD 240238 AAA
TAFFSD
TAF AMD
KFSD 240238Z 2403/2424 33004KT 5SM BR OVC004
     FM240500 VRB03KT P6SM SCT003 BKN008
     FM241600 09009KT 3/4SM -SN OVC005
     FM242300 35004KT 1 1/2SM -SN OVC010=

USA.gov is the U.S. government's official web portal to all federal, state and local government web resources and services.